sensor_id;sensor_type;location;lat;lon;timestamp;P1;durP1;ratioP1;P2;durP2;ratioP2
31638;SDS011;18248;51.522;7.020;2023-04-25T00:01:29;24.25;;;8.75;;
31638;SDS011;18248;51.522;7.020;2023-04-25T00:04:28;26.58;;;8.30;;
31638;SDS011;18248;51.522;7.020;2023-04-25T00:07:27;18.27;;;5.45;;
31638;SDS011;18248;51.522;7.020;2023-04-25T00:10:26;27.33;;;7.93;;
31638;SDS011;18248;51.522;7.020;2023-04-25T00:13:25;20.42;;;7.30;;
31638;SDS011;18248;51.522;7.020;2023-04-25T00:16:24;16.52;;;5.75;;
31638;SDS011;18248;51.522;7.020;2023-04-25T00:19:22;22.77;;;7.28;;
31638;SDS011;18248;51.522;7.020;2023-04-25T00:22:21;21.63;;;7.43;;
31638;SDS011;18248;51.522;7.020;2023-04-25T00:25:19;26.35;;;8.65;;
31638;SDS011;18248;51.522;7.020;2023-04-25T00:28:18;32.60;;;10.93;;
31638;SDS011;18248;51.522;7.020;2023-04-25T00:31:17;35.17;;;10.93;;
31638;SDS011;18248;51.522;7.020;2023-04-25T00:34:16;19.75;;;7.00;;
31638;SDS011;18248;51.522;7.020;2023-04-25T00:37:15;23.45;;;8.90;;
31638;SDS011;18248;51.522;7.020;2023-04-25T00:40:14;18.15;;;6.45;;
31638;SDS011;18248;51.522;7.020;2023-04-25T00:43:13;14.90;;;6.32;;
31638;SDS011;18248;51.522;7.020;2023-04-25T00:46:12;21.30;;;6.72;;
31638;SDS011;18248;51.522;7.020;2023-04-25T00:49:10;18.08;;;6.28;;
31638;SDS011;18248;51.522;7.020;2023-04-25T00:52:13;14.43;;;5.57;;
31638;SDS011;18248;51.522;7.020;2023-04-25T00:55:12;17.30;;;5.88;;
31638;SDS011;18248;51.522;7.020;2023-04-25T00:58:11;19.85;;;7.00;;
31638;SDS011;18248;51.522;7.020;2023-04-25T01:01:10;25.23;;;6.55;;
31638;SDS011;18248;51.522;7.020;2023-04-25T01:04:09;17.00;;;5.85;;
31638;SDS011;18248;51.522;7.020;2023-04-25T01:07:08;22.83;;;6.70;;
31638;SDS011;18248;51.522;7.020;2023-04-25T01:10:08;24.08;;;7.50;;
31638;SDS011;18248;51.522;7.020;2023-04-25T01:13:07;28.85;;;7.32;;
31638;SDS011;18248;51.522;7.020;2023-04-25T01:16:06;19.63;;;7.05;;
31638;SDS011;18248;51.522;7.020;2023-04-25T01:19:08;27.13;;;6.63;;
31638;SDS011;18248;51.522;7.020;2023-04-25T01:22:11;21.83;;;6.80;;
31638;SDS011;18248;51.522;7.020;2023-04-25T01:25:12;22.67;;;7.32;;
31638;SDS011;18248;51.522;7.020;2023-04-25T01:28:10;16.65;;;6.90;;
31638;SDS011;18248;51.522;7.020;2023-04-25T01:31:09;21.10;;;6.97;;
31638;SDS011;18248;51.522;7.020;2023-04-25T01:34:10;16.90;;;6.53;;
31638;SDS011;18248;51.522;7.020;2023-04-25T01:37:11;13.65;;;6.65;;
31638;SDS011;18248;51.522;7.020;2023-04-25T01:40:10;17.52;;;6.63;;
31638;SDS011;18248;51.522;7.020;2023-04-25T01:43:10;22.25;;;6.88;;
31638;SDS011;18248;51.522;7.020;2023-04-25T01:46:10;23.52;;;7.40;;
31638;SDS011;18248;51.522;7.020;2023-04-25T01:49:09;26.92;;;8.15;;
31638;SDS011;18248;51.522;7.020;2023-04-25T01:52:08;17.13;;;6.35;;
31638;SDS011;18248;51.522;7.020;2023-04-25T01:55:08;20.63;;;6.57;;
31638;SDS011;18248;51.522;7.020;2023-04-25T01:58:07;16.30;;;7.03;;
31638;SDS011;18248;51.522;7.020;2023-04-25T02:01:07;20.73;;;6.57;;
31638;SDS011;18248;51.522;7.020;2023-04-25T02:04:06;23.83;;;6.97;;
31638;SDS011;18248;51.522;7.020;2023-04-25T02:07:04;18.35;;;6.65;;
31638;SDS011;18248;51.522;7.020;2023-04-25T02:10:03;19.77;;;6.30;;
31638;SDS011;18248;51.522;7.020;2023-04-25T02:13:02;18.90;;;6.60;;
31638;SDS011;18248;51.522;7.020;2023-04-25T02:16:02;20.50;;;6.78;;
31638;SDS011;18248;51.522;7.020;2023-04-25T02:19:01;18.38;;;6.00;;
31638;SDS011;18248;51.522;7.020;2023-04-25T02:21:59;15.48;;;5.72;;
31638;SDS011;18248;51.522;7.020;2023-04-25T02:24:58;18.52;;;5.45;;
31638;SDS011;18248;51.522;7.020;2023-04-25T02:27:57;16.83;;;6.50;;
31638;SDS011;18248;51.522;7.020;2023-04-25T02:30:55;19.92;;;6.50;;
31638;SDS011;18248;51.522;7.020;2023-04-25T02:33:54;17.02;;;6.82;;
31638;SDS011;18248;51.522;7.020;2023-04-25T02:36:52;22.60;;;6.30;;
31638;SDS011;18248;51.522;7.020;2023-04-25T02:39:51;20.02;;;6.18;;
31638;SDS011;18248;51.522;7.020;2023-04-25T02:42:49;26.70;;;7.10;;
31638;SDS011;18248;51.522;7.020;2023-04-25T02:45:48;18.85;;;6.18;;
31638;SDS011;18248;51.522;7.020;2023-04-25T02:48:47;17.42;;;5.85;;
31638;SDS011;18248;51.522;7.020;2023-04-25T02:51:46;19.38;;;7.35;;
31638;SDS011;18248;51.522;7.020;2023-04-25T02:54:45;23.38;;;7.10;;
31638;SDS011;18248;51.522;7.020;2023-04-25T02:57:44;17.98;;;5.95;;
31638;SDS011;18248;51.522;7.020;2023-04-25T03:00:43;16.52;;;6.57;;
31638;SDS011;18248;51.522;7.020;2023-04-25T03:03:42;27.92;;;7.78;;
31638;SDS011;18248;51.522;7.020;2023-04-25T03:06:42;22.58;;;7.25;;
31638;SDS011;18248;51.522;7.020;2023-04-25T03:09:43;22.00;;;7.22;;
31638;SDS011;18248;51.522;7.020;2023-04-25T03:12:42;25.67;;;8.82;;
31638;SDS011;18248;51.522;7.020;2023-04-25T03:15:41;29.48;;;8.55;;
31638;SDS011;18248;51.522;7.020;2023-04-25T03:18:39;28.42;;;8.75;;
31638;SDS011;18248;51.522;7.020;2023-04-25T03:21:38;27.33;;;8.27;;
31638;SDS011;18248;51.522;7.020;2023-04-25T03:24:36;23.20;;;8.55;;
31638;SDS011;18248;51.522;7.020;2023-04-25T03:27:37;24.13;;;8.43;;
31638;SDS011;18248;51.522;7.020;2023-04-25T03:30:36;26.00;;;8.85;;
31638;SDS011;18248;51.522;7.020;2023-04-25T03:33:34;24.30;;;8.07;;
31638;SDS011;18248;51.522;7.020;2023-04-25T03:36:33;21.52;;;7.25;;
31638;SDS011;18248;51.522;7.020;2023-04-25T03:39:31;26.75;;;7.60;;
31638;SDS011;18248;51.522;7.020;2023-04-25T03:42:30;29.10;;;7.47;;
31638;SDS011;18248;51.522;7.020;2023-04-25T03:45:29;22.05;;;7.85;;
31638;SDS011;18248;51.522;7.020;2023-04-25T03:48:27;19.48;;;6.53;;
31638;SDS011;18248;51.522;7.020;2023-04-25T03:51:26;23.90;;;8.05;;
31638;SDS011;18248;51.522;7.020;2023-04-25T03:54:24;23.25;;;7.65;;
31638;SDS011;18248;51.522;7.020;2023-04-25T03:57:23;20.52;;;6.70;;
31638;SDS011;18248;51.522;7.020;2023-04-25T04:00:22;27.88;;;7.50;;
31638;SDS011;18248;51.522;7.020;2023-04-25T04:03:20;19.42;;;6.07;;
31638;SDS011;18248;51.522;7.020;2023-04-25T04:06:19;23.50;;;5.55;;
31638;SDS011;18248;51.522;7.020;2023-04-25T04:09:18;19.23;;;4.72;;
31638;SDS011;18248;51.522;7.020;2023-04-25T04:12:18;18.58;;;4.43;;
31638;SDS011;18248;51.522;7.020;2023-04-25T04:15:16;15.93;;;4.00;;
31638;SDS011;18248;51.522;7.020;2023-04-25T04:18:15;15.32;;;4.45;;
31638;SDS011;18248;51.522;7.020;2023-04-25T04:21:15;12.57;;;3.60;;
31638;SDS011;18248;51.522;7.020;2023-04-25T04:24:15;14.00;;;3.60;;
31638;SDS011;18248;51.522;7.020;2023-04-25T04:27:14;16.85;;;3.83;;
31638;SDS011;18248;51.522;7.020;2023-04-25T04:30:16;15.70;;;3.72;;
31638;SDS011;18248;51.522;7.020;2023-04-25T04:33:15;23.40;;;5.40;;
31638;SDS011;18248;51.522;7.020;2023-04-25T04:36:13;20.15;;;4.00;;
31638;SDS011;18248;51.522;7.020;2023-04-25T04:39:13;13.82;;;3.70;;
31638;SDS011;18248;51.522;7.020;2023-04-25T04:42:12;17.80;;;4.72;;
31638;SDS011;18248;51.522;7.020;2023-04-25T04:45:11;50.65;;;11.63;;
31638;SDS011;18248;51.522;7.020;2023-04-25T04:48:11;32.63;;;9.55;;
31638;SDS011;18248;51.522;7.020;2023-04-25T04:51:11;24.75;;;7.95;;
31638;SDS011;18248;51.522;7.020;2023-04-25T04:54:13;25.42;;;8.38;;
31638;SDS011;18248;51.522;7.020;2023-04-25T04:57:12;26.73;;;8.85;;
31638;SDS011;18248;51.522;7.020;2023-04-25T05:00:10;29.80;;;9.90;;
31638;SDS011;18248;51.522;7.020;2023-04-25T05:03:12;38.03;;;11.80;;
31638;SDS011;18248;51.522;7.020;2023-04-25T05:06:11;22.27;;;9.52;;
31638;SDS011;18248;51.522;7.020;2023-04-25T05:09:09;30.60;;;9.15;;
31638;SDS011;18248;51.522;7.020;2023-04-25T05:12:08;29.17;;;9.40;;
31638;SDS011;18248;51.522;7.020;2023-04-25T05:15:06;30.42;;;10.13;;
31638;SDS011;18248;51.522;7.020;2023-04-25T05:18:05;42.58;;;12.48;;
31638;SDS011;18248;51.522;7.020;2023-04-25T05:21:04;40.28;;;9.93;;
31638;SDS011;18248;51.522;7.020;2023-04-25T05:24:03;28.63;;;8.77;;
31638;SDS011;18248;51.522;7.020;2023-04-25T05:27:01;26.60;;;8.50;;
31638;SDS011;18248;51.522;7.020;2023-04-25T05:30:00;31.98;;;7.47;;
31638;SDS011;18248;51.522;7.020;2023-04-25T05:32:58;22.15;;;7.72;;
31638;SDS011;18248;51.522;7.020;2023-04-25T05:35:57;24.23;;;7.70;;
31638;SDS011;18248;51.522;7.020;2023-04-25T05:38:56;30.35;;;7.45;;
31638;SDS011;18248;51.522;7.020;2023-04-25T05:41:56;35.70;;;7.90;;
31638;SDS011;18248;51.522;7.020;2023-04-25T05:44:54;26.75;;;6.88;;
31638;SDS011;18248;51.522;7.020;2023-04-25T05:47:53;33.67;;;8.75;;
31638;SDS011;18248;51.522;7.020;2023-04-25T05:50:51;36.33;;;7.97;;
31638;SDS011;18248;51.522;7.020;2023-04-25T05:53:50;26.92;;;7.18;;
31638;SDS011;18248;51.522;7.020;2023-04-25T05:56:48;28.70;;;7.68;;
31638;SDS011;18248;51.522;7.020;2023-04-25T05:59:48;34.35;;;7.40;;
31638;SDS011;18248;51.522;7.020;2023-04-25T06:02:47;27.05;;;7.65;;
31638;SDS011;18248;51.522;7.020;2023-04-25T06:05:46;26.38;;;6.38;;
31638;SDS011;18248;51.522;7.020;2023-04-25T06:08:44;35.33;;;7.93;;
31638;SDS011;18248;51.522;7.020;2023-04-25T06:11:43;27.30;;;7.45;;
31638;SDS011;18248;51.522;7.020;2023-04-25T06:14:42;24.45;;;6.97;;
31638;SDS011;18248;51.522;7.020;2023-04-25T06:17:41;25.73;;;7.13;;
31638;SDS011;18248;51.522;7.020;2023-04-25T06:20:39;25.25;;;7.28;;
31638;SDS011;18248;51.522;7.020;2023-04-25T06:23:38;22.42;;;5.88;;
31638;SDS011;18248;51.522;7.020;2023-04-25T06:26:36;30.40;;;6.07;;
31638;SDS011;18248;51.522;7.020;2023-04-25T06:29:35;24.83;;;6.13;;
31638;SDS011;18248;51.522;7.020;2023-04-25T06:32:33;24.05;;;6.30;;
31638;SDS011;18248;51.522;7.020;2023-04-25T06:35:32;23.15;;;5.53;;
31638;SDS011;18248;51.522;7.020;2023-04-25T06:38:30;27.00;;;5.47;;
31638;SDS011;18248;51.522;7.020;2023-04-25T06:41:29;29.60;;;6.60;;
31638;SDS011;18248;51.522;7.020;2023-04-25T06:44:27;23.95;;;6.28;;
31638;SDS011;18248;51.522;7.020;2023-04-25T06:47:27;24.45;;;5.03;;
31638;SDS011;18248;51.522;7.020;2023-04-25T06:50:25;14.43;;;4.55;;
31638;SDS011;18248;51.522;7.020;2023-04-25T06:53:26;18.30;;;4.75;;
31638;SDS011;18248;51.522;7.020;2023-04-25T06:56:24;19.80;;;4.47;;
31638;SDS011;18248;51.522;7.020;2023-04-25T06:59:23;23.27;;;3.80;;
31638;SDS011;18248;51.522;7.020;2023-04-25T07:02:21;10.40;;;3.70;;
31638;SDS011;18248;51.522;7.020;2023-04-25T07:05:21;15.73;;;3.70;;
31638;SDS011;18248;51.522;7.020;2023-04-25T07:08:20;16.98;;;3.60;;
31638;SDS011;18248;51.522;7.020;2023-04-25T07:11:19;17.67;;;3.70;;
31638;SDS011;18248;51.522;7.020;2023-04-25T07:14:18;19.90;;;4.45;;
31638;SDS011;18248;51.522;7.020;2023-04-25T07:17:16;17.17;;;3.95;;
31638;SDS011;18248;51.522;7.020;2023-04-25T07:20:15;14.90;;;3.28;;
31638;SDS011;18248;51.522;7.020;2023-04-25T07:23:14;16.77;;;4.47;;
31638;SDS011;18248;51.522;7.020;2023-04-25T07:26:12;20.80;;;3.55;;
31638;SDS011;18248;51.522;7.020;2023-04-25T07:29:11;16.80;;;3.90;;
31638;SDS011;18248;51.522;7.020;2023-04-25T07:32:13;16.75;;;3.97;;
31638;SDS011;18248;51.522;7.020;2023-04-25T07:35:12;15.02;;;3.30;;
31638;SDS011;18248;51.522;7.020;2023-04-25T07:38:11;17.55;;;3.45;;
31638;SDS011;18248;51.522;7.020;2023-04-25T07:41:09;11.05;;;3.53;;
31638;SDS011;18248;51.522;7.020;2023-04-25T07:44:09;12.93;;;3.65;;
31638;SDS011;18248;51.522;7.020;2023-04-25T07:47:08;10.48;;;3.15;;
31638;SDS011;18248;51.522;7.020;2023-04-25T07:50:08;17.00;;;3.10;;
31638;SDS011;18248;51.522;7.020;2023-04-25T07:53:07;13.57;;;3.75;;
31638;SDS011;18248;51.522;7.020;2023-04-25T07:56:05;12.65;;;2.72;;
31638;SDS011;18248;51.522;7.020;2023-04-25T07:59:04;17.35;;;3.30;;
31638;SDS011;18248;51.522;7.020;2023-04-25T08:02:03;11.32;;;2.95;;
31638;SDS011;18248;51.522;7.020;2023-04-25T08:05:02;13.85;;;3.38;;
31638;SDS011;18248;51.522;7.020;2023-04-25T08:08:00;14.63;;;3.17;;
31638;SDS011;18248;51.522;7.020;2023-04-25T08:11:00;16.67;;;3.15;;
31638;SDS011;18248;51.522;7.020;2023-04-25T08:13:58;17.33;;;3.38;;
31638;SDS011;18248;51.522;7.020;2023-04-25T08:16:57;16.95;;;3.63;;
31638;SDS011;18248;51.522;7.020;2023-04-25T08:19:55;13.98;;;2.75;;
31638;SDS011;18248;51.522;7.020;2023-04-25T08:22:54;17.95;;;3.28;;
31638;SDS011;18248;51.522;7.020;2023-04-25T08:25:55;14.73;;;3.22;;
31638;SDS011;18248;51.522;7.020;2023-04-25T08:28:53;22.00;;;3.17;;
31638;SDS011;18248;51.522;7.020;2023-04-25T08:31:52;20.95;;;3.03;;
31638;SDS011;18248;51.522;7.020;2023-04-25T08:34:53;20.33;;;3.53;;
31638;SDS011;18248;51.522;7.020;2023-04-25T08:37:53;17.33;;;2.95;;
31638;SDS011;18248;51.522;7.020;2023-04-25T08:40:53;17.60;;;3.28;;
31638;SDS011;18248;51.522;7.020;2023-04-25T08:43:53;17.70;;;3.13;;
31638;SDS011;18248;51.522;7.020;2023-04-25T08:46:54;15.45;;;2.90;;
31638;SDS011;18248;51.522;7.020;2023-04-25T08:49:54;15.43;;;3.05;;
31638;SDS011;18248;51.522;7.020;2023-04-25T08:52:53;15.52;;;2.95;;
31638;SDS011;18248;51.522;7.020;2023-04-25T08:55:54;18.45;;;3.38;;
31638;SDS011;18248;51.522;7.020;2023-04-25T08:58:54;17.80;;;3.33;;
31638;SDS011;18248;51.522;7.020;2023-04-25T09:01:54;14.20;;;3.10;;
31638;SDS011;18248;51.522;7.020;2023-04-25T09:04:53;15.40;;;2.95;;
31638;SDS011;18248;51.522;7.020;2023-04-25T09:07:53;13.02;;;3.00;;
31638;SDS011;18248;51.522;7.020;2023-04-25T09:10:51;16.42;;;3.05;;
31638;SDS011;18248;51.522;7.020;2023-04-25T09:13:50;15.35;;;3.13;;
31638;SDS011;18248;51.522;7.020;2023-04-25T09:17:10;15.98;;;2.45;;
31638;SDS011;18248;51.522;7.020;2023-04-25T09:20:09;10.07;;;2.42;;
31638;SDS011;18248;51.522;7.020;2023-04-25T09:23:11;10.63;;;2.40;;
31638;SDS011;18248;51.522;7.020;2023-04-25T09:26:15;18.88;;;2.38;;
31638;SDS011;18248;51.522;7.020;2023-04-25T09:29:16;9.52;;;2.08;;
31638;SDS011;18248;51.522;7.020;2023-04-25T09:32:18;13.38;;;2.63;;
31638;SDS011;18248;51.522;7.020;2023-04-25T09:35:26;7.93;;;1.85;;
31638;SDS011;18248;51.522;7.020;2023-04-25T09:38:25;13.52;;;2.22;;
31638;SDS011;18248;51.522;7.020;2023-04-25T09:41:23;12.05;;;1.60;;
31638;SDS011;18248;51.522;7.020;2023-04-25T09:44:23;10.48;;;2.28;;
31638;SDS011;18248;51.522;7.020;2023-04-25T09:47:23;13.80;;;1.85;;
31638;SDS011;18248;51.522;7.020;2023-04-25T09:50:22;9.43;;;1.77;;
31638;SDS011;18248;51.522;7.020;2023-04-25T09:53:22;11.13;;;2.17;;
31638;SDS011;18248;51.522;7.020;2023-04-25T09:56:21;10.75;;;1.80;;
31638;SDS011;18248;51.522;7.020;2023-04-25T09:59:21;14.18;;;2.28;;
31638;SDS011;18248;51.522;7.020;2023-04-25T10:02:27;7.15;;;1.63;;
31638;SDS011;18248;51.522;7.020;2023-04-25T10:05:25;7.18;;;1.95;;
31638;SDS011;18248;51.522;7.020;2023-04-25T10:08:34;11.77;;;2.00;;
31638;SDS011;18248;51.522;7.020;2023-04-25T10:11:34;8.75;;;1.83;;
31638;SDS011;18248;51.522;7.020;2023-04-25T10:14:34;8.23;;;1.63;;
31638;SDS011;18248;51.522;7.020;2023-04-25T10:17:33;5.53;;;1.30;;
31638;SDS011;18248;51.522;7.020;2023-04-25T10:20:33;12.50;;;2.38;;
31638;SDS011;18248;51.522;7.020;2023-04-25T10:23:31;8.20;;;2.10;;
31638;SDS011;18248;51.522;7.020;2023-04-25T10:26:32;12.10;;;1.98;;
31638;SDS011;18248;51.522;7.020;2023-04-25T10:29:32;14.23;;;1.98;;
31638;SDS011;18248;51.522;7.020;2023-04-25T10:32:31;7.07;;;1.83;;
31638;SDS011;18248;51.522;7.020;2023-04-25T10:35:31;9.90;;;2.08;;
31638;SDS011;18248;51.522;7.020;2023-04-25T10:38:32;9.73;;;1.90;;
31638;SDS011;18248;51.522;7.020;2023-04-25T10:41:31;13.40;;;2.70;;
31638;SDS011;18248;51.522;7.020;2023-04-25T10:44:47;14.95;;;2.40;;
31638;SDS011;18248;51.522;7.020;2023-04-25T10:48:00;13.70;;;2.50;;
31638;SDS011;18248;51.522;7.020;2023-04-25T10:51:08;6.72;;;1.73;;
31638;SDS011;18248;51.522;7.020;2023-04-25T10:54:08;11.60;;;2.63;;
31638;SDS011;18248;51.522;7.020;2023-04-25T10:57:06;13.43;;;2.40;;
31638;SDS011;18248;51.522;7.020;2023-04-25T11:00:06;11.57;;;2.25;;
31638;SDS011;18248;51.522;7.020;2023-04-25T11:03:08;14.95;;;2.70;;
31638;SDS011;18248;51.522;7.020;2023-04-25T11:06:07;10.48;;;1.85;;
31638;SDS011;18248;51.522;7.020;2023-04-25T11:09:23;8.82;;;2.05;;
31638;SDS011;18248;51.522;7.020;2023-04-25T11:12:22;12.18;;;2.10;;
31638;SDS011;18248;51.522;7.020;2023-04-25T11:15:22;10.23;;;1.83;;
31638;SDS011;18248;51.522;7.020;2023-04-25T11:18:21;9.00;;;1.73;;
31638;SDS011;18248;51.522;7.020;2023-04-25T11:21:27;11.85;;;1.90;;
31638;SDS011;18248;51.522;7.020;2023-04-25T11:24:26;9.70;;;1.98;;
31638;SDS011;18248;51.522;7.020;2023-04-25T11:27:26;8.00;;;1.55;;
31638;SDS011;18248;51.522;7.020;2023-04-25T11:30:25;13.55;;;2.30;;
31638;SDS011;18248;51.522;7.020;2023-04-25T11:33:25;7.72;;;1.95;;
31638;SDS011;18248;51.522;7.020;2023-04-25T11:36:25;9.50;;;2.30;;
31638;SDS011;18248;51.522;7.020;2023-04-25T11:39:25;5.82;;;1.50;;
31638;SDS011;18248;51.522;7.020;2023-04-25T11:42:25;6.95;;;1.83;;
31638;SDS011;18248;51.522;7.020;2023-04-25T11:45:28;8.10;;;1.77;;
31638;SDS011;18248;51.522;7.020;2023-04-25T11:48:28;7.75;;;1.67;;
31638;SDS011;18248;51.522;7.020;2023-04-25T11:51:38;7.05;;;1.80;;
31638;SDS011;18248;51.522;7.020;2023-04-25T11:54:42;4.55;;;1.33;;
31638;SDS011;18248;51.522;7.020;2023-04-25T11:57:43;8.10;;;1.92;;
31638;SDS011;18248;51.522;7.020;2023-04-25T12:00:43;10.30;;;1.55;;
31638;SDS011;18248;51.522;7.020;2023-04-25T12:03:46;7.25;;;1.70;;
31638;SDS011;18248;51.522;7.020;2023-04-25T12:06:45;7.30;;;1.63;;
31638;SDS011;18248;51.522;7.020;2023-04-25T12:09:51;6.63;;;1.17;;
31638;SDS011;18248;51.522;7.020;2023-04-25T12:12:50;4.30;;;1.60;;
31638;SDS011;18248;51.522;7.020;2023-04-25T12:15:49;10.27;;;2.00;;
31638;SDS011;18248;51.522;7.020;2023-04-25T12:18:51;4.15;;;1.27;;
31638;SDS011;18248;51.522;7.020;2023-04-25T12:21:50;4.43;;;1.40;;
31638;SDS011;18248;51.522;7.020;2023-04-25T12:24:49;8.70;;;1.50;;
31638;SDS011;18248;51.522;7.020;2023-04-25T12:27:48;10.32;;;1.33;;
31638;SDS011;18248;51.522;7.020;2023-04-25T12:31:00;7.43;;;1.70;;
31638;SDS011;18248;51.522;7.020;2023-04-25T12:34:01;7.50;;;1.77;;
31638;SDS011;18248;51.522;7.020;2023-04-25T12:37:00;6.15;;;1.70;;
31638;SDS011;18248;51.522;7.020;2023-04-25T12:39:58;6.80;;;1.75;;
31638;SDS011;18248;51.522;7.020;2023-04-25T12:42:57;5.88;;;1.38;;
31638;SDS011;18248;51.522;7.020;2023-04-25T12:45:56;6.80;;;1.30;;
31638;SDS011;18248;51.522;7.020;2023-04-25T12:48:55;5.47;;;1.13;;
31638;SDS011;18248;51.522;7.020;2023-04-25T12:51:53;4.07;;;1.38;;
31638;SDS011;18248;51.522;7.020;2023-04-25T12:54:52;7.47;;;1.20;;
31638;SDS011;18248;51.522;7.020;2023-04-25T12:57:51;7.80;;;1.77;;
31638;SDS011;18248;51.522;7.020;2023-04-25T13:00:50;7.57;;;1.70;;
31638;SDS011;18248;51.522;7.020;2023-04-25T13:03:48;5.63;;;1.60;;
31638;SDS011;18248;51.522;7.020;2023-04-25T13:06:47;5.00;;;1.00;;
31638;SDS011;18248;51.522;7.020;2023-04-25T13:09:46;5.75;;;1.55;;
31638;SDS011;18248;51.522;7.020;2023-04-25T13:12:44;8.77;;;1.65;;
31638;SDS011;18248;51.522;7.020;2023-04-25T13:15:43;6.90;;;1.77;;
31638;SDS011;18248;51.522;7.020;2023-04-25T13:18:42;9.15;;;1.60;;
31638;SDS011;18248;51.522;7.020;2023-04-25T13:21:41;13.50;;;2.10;;
31638;SDS011;18248;51.522;7.020;2023-04-25T13:24:39;11.35;;;1.50;;
31638;SDS011;18248;51.522;7.020;2023-04-25T13:27:38;9.10;;;2.17;;
31638;SDS011;18248;51.522;7.020;2023-04-25T13:30:38;11.27;;;2.03;;
31638;SDS011;18248;51.522;7.020;2023-04-25T13:33:37;9.77;;;2.03;;
31638;SDS011;18248;51.522;7.020;2023-04-25T13:36:37;6.80;;;1.85;;
31638;SDS011;18248;51.522;7.020;2023-04-25T13:39:36;9.10;;;1.67;;
31638;SDS011;18248;51.522;7.020;2023-04-25T13:42:38;8.10;;;1.38;;
31638;SDS011;18248;51.522;7.020;2023-04-25T13:45:37;8.95;;;1.60;;
31638;SDS011;18248;51.522;7.020;2023-04-25T13:48:35;5.05;;;1.58;;
31638;SDS011;18248;51.522;7.020;2023-04-25T13:51:34;9.95;;;1.05;;
31638;SDS011;18248;51.522;7.020;2023-04-25T13:54:34;7.25;;;1.05;;
31638;SDS011;18248;51.522;7.020;2023-04-25T13:57:33;3.53;;;0.93;;
31638;SDS011;18248;51.522;7.020;2023-04-25T14:00:32;4.72;;;1.58;;
31638;SDS011;18248;51.522;7.020;2023-04-25T14:03:36;4.95;;;1.10;;
31638;SDS011;18248;51.522;7.020;2023-04-25T14:06:34;3.90;;;1.17;;
31638;SDS011;18248;51.522;7.020;2023-04-25T14:09:33;4.97;;;1.40;;
31638;SDS011;18248;51.522;7.020;2023-04-25T14:12:32;3.20;;;1.00;;
31638;SDS011;18248;51.522;7.020;2023-04-25T14:15:31;7.57;;;1.00;;
31638;SDS011;18248;51.522;7.020;2023-04-25T14:18:30;5.68;;;1.30;;
31638;SDS011;18248;51.522;7.020;2023-04-25T14:21:30;3.80;;;1.02;;
31638;SDS011;18248;51.522;7.020;2023-04-25T14:24:30;3.58;;;1.23;;
31638;SDS011;18248;51.522;7.020;2023-04-25T14:27:29;6.47;;;1.10;;
31638;SDS011;18248;51.522;7.020;2023-04-25T14:30:27;3.92;;;0.73;;
31638;SDS011;18248;51.522;7.020;2023-04-25T14:33:26;6.78;;;1.05;;
31638;SDS011;18248;51.522;7.020;2023-04-25T14:36:24;7.95;;;1.10;;
31638;SDS011;18248;51.522;7.020;2023-04-25T14:39:24;4.22;;;1.15;;
31638;SDS011;18248;51.522;7.020;2023-04-25T14:42:23;5.05;;;0.88;;
31638;SDS011;18248;51.522;7.020;2023-04-25T14:45:21;6.13;;;1.40;;
31638;SDS011;18248;51.522;7.020;2023-04-25T14:48:20;6.90;;;1.50;;
31638;SDS011;18248;51.522;7.020;2023-04-25T14:51:18;6.97;;;1.55;;
31638;SDS011;18248;51.522;7.020;2023-04-25T14:54:17;7.13;;;1.73;;
31638;SDS011;18248;51.522;7.020;2023-04-25T14:57:15;9.18;;;1.67;;
31638;SDS011;18248;51.522;7.020;2023-04-25T15:00:14;5.97;;;1.38;;
31638;SDS011;18248;51.522;7.020;2023-04-25T15:03:14;10.02;;;1.60;;
31638;SDS011;18248;51.522;7.020;2023-04-25T15:06:14;5.88;;;1.42;;
31638;SDS011;18248;51.522;7.020;2023-04-25T15:09:13;5.07;;;1.42;;
31638;SDS011;18248;51.522;7.020;2023-04-25T15:12:11;14.50;;;1.25;;
31638;SDS011;18248;51.522;7.020;2023-04-25T15:15:10;5.20;;;1.40;;
31638;SDS011;18248;51.522;7.020;2023-04-25T15:18:11;5.28;;;1.48;;
31638;SDS011;18248;51.522;7.020;2023-04-25T15:21:10;6.78;;;1.10;;
31638;SDS011;18248;51.522;7.020;2023-04-25T15:24:09;5.53;;;1.40;;
31638;SDS011;18248;51.522;7.020;2023-04-25T15:27:08;5.05;;;1.30;;
31638;SDS011;18248;51.522;7.020;2023-04-25T15:30:09;4.55;;;1.55;;
31638;SDS011;18248;51.522;7.020;2023-04-25T15:33:13;8.68;;;1.63;;
31638;SDS011;18248;51.522;7.020;2023-04-25T15:36:12;5.10;;;1.60;;
31638;SDS011;18248;51.522;7.020;2023-04-25T15:39:11;8.20;;;1.80;;
31638;SDS011;18248;51.522;7.020;2023-04-25T15:42:09;7.28;;;1.88;;
31638;SDS011;18248;51.522;7.020;2023-04-25T15:45:09;8.68;;;1.80;;
31638;SDS011;18248;51.522;7.020;2023-04-25T15:48:09;5.07;;;1.50;;
31638;SDS011;18248;51.522;7.020;2023-04-25T15:51:08;6.15;;;1.83;;
31638;SDS011;18248;51.522;7.020;2023-04-25T15:54:07;6.57;;;1.55;;
31638;SDS011;18248;51.522;7.020;2023-04-25T15:57:06;7.78;;;1.50;;
31638;SDS011;18248;51.522;7.020;2023-04-25T16:00:05;5.72;;;1.30;;
31638;SDS011;18248;51.522;7.020;2023-04-25T16:03:08;3.08;;;1.30;;
31638;SDS011;18248;51.522;7.020;2023-04-25T16:06:07;8.45;;;1.40;;
31638;SDS011;18248;51.522;7.020;2023-04-25T16:09:05;6.63;;;1.33;;
31638;SDS011;18248;51.522;7.020;2023-04-25T16:12:04;7.32;;;1.40;;
31638;SDS011;18248;51.522;7.020;2023-04-25T16:15:03;8.90;;;1.55;;
31638;SDS011;18248;51.522;7.020;2023-04-25T16:18:02;10.48;;;1.20;;
31638;SDS011;18248;51.522;7.020;2023-04-25T16:21:01;5.30;;;1.13;;
31638;SDS011;18248;51.522;7.020;2023-04-25T16:24:00;4.88;;;1.50;;
31638;SDS011;18248;51.522;7.020;2023-04-25T16:27:01;7.78;;;1.23;;
31638;SDS011;18248;51.522;7.020;2023-04-25T16:30:01;6.20;;;1.63;;
31638;SDS011;18248;51.522;7.020;2023-04-25T16:33:00;7.65;;;1.13;;
31638;SDS011;18248;51.522;7.020;2023-04-25T16:35:58;8.45;;;1.75;;
31638;SDS011;18248;51.522;7.020;2023-04-25T16:38:57;8.32;;;1.33;;
31638;SDS011;18248;51.522;7.020;2023-04-25T16:41:58;7.80;;;1.40;;
31638;SDS011;18248;51.522;7.020;2023-04-25T16:44:56;6.43;;;1.48;;
31638;SDS011;18248;51.522;7.020;2023-04-25T16:47:55;5.03;;;1.30;;
31638;SDS011;18248;51.522;7.020;2023-04-25T16:50:53;5.28;;;1.75;;
31638;SDS011;18248;51.522;7.020;2023-04-25T16:53:52;5.82;;;1.50;;
31638;SDS011;18248;51.522;7.020;2023-04-25T16:56:52;6.70;;;1.23;;
31638;SDS011;18248;51.522;7.020;2023-04-25T16:59:51;8.18;;;1.83;;
31638;SDS011;18248;51.522;7.020;2023-04-25T17:02:50;3.63;;;1.25;;
31638;SDS011;18248;51.522;7.020;2023-04-25T17:05:53;6.75;;;1.10;;
31638;SDS011;18248;51.522;7.020;2023-04-25T17:08:58;3.50;;;1.17;;
31638;SDS011;18248;51.522;7.020;2023-04-25T17:11:59;3.05;;;1.00;;
31638;SDS011;18248;51.522;7.020;2023-04-25T17:14:59;10.77;;;1.65;;
31638;SDS011;18248;51.522;7.020;2023-04-25T17:17:58;16.23;;;9.32;;
31638;SDS011;18248;51.522;7.020;2023-04-25T17:20:59;10.40;;;2.90;;
31638;SDS011;18248;51.522;7.020;2023-04-25T17:23:58;5.20;;;1.23;;
31638;SDS011;18248;51.522;7.020;2023-04-25T17:26:57;6.60;;;1.60;;
31638;SDS011;18248;51.522;7.020;2023-04-25T17:29:56;10.23;;;1.67;;
31638;SDS011;18248;51.522;7.020;2023-04-25T17:32:54;8.02;;;1.52;;
31638;SDS011;18248;51.522;7.020;2023-04-25T17:35:53;8.27;;;1.50;;
31638;SDS011;18248;51.522;7.020;2023-04-25T17:38:52;6.55;;;1.52;;
31638;SDS011;18248;51.522;7.020;2023-04-25T17:41:51;7.72;;;1.73;;
31638;SDS011;18248;51.522;7.020;2023-04-25T17:44:50;8.88;;;2.05;;
31638;SDS011;18248;51.522;7.020;2023-04-25T17:47:51;6.78;;;1.38;;
31638;SDS011;18248;51.522;7.020;2023-04-25T17:50:50;9.07;;;2.35;;